Maple Park, Illinois
Current Conditions -  °F | °C
As of 8:15 AM on Thursday 29 Jan 2015 (Local Time) from KDKB Reporting Station
Haze Haze  
Wind Chill: 21°   Ceiling: 1200
Heat Index: 31°   Visibility: 5mi
Dew Point: 28°   Wind: 14mph
Humidity: 86%   Direction: 330°NNW
Pressure: 29.84"   Gusts: 22mph
Location:  41.91°N, 88.6°W
Report Text: KDKB 291415Z AUTO 33012G19KT 5SM BR OVC012 00/M02 A2984 RMK AO2 T10051025
Loading
Personal Weather Stations






























Interactive Weather Map New forecast layout! Learn more

10-Day Weather Forecast

Advertisements
Track Severe Weather on mobile